Saint Louis, MO (63128)

3:54 AM CST on December 21, 2014 (GMT -0600)
Saint Louis County | Change Station
CLOSE
Current Station
Personal Weather Station
Location: Saint Louis County, MO
Elevation: 485 ft
Nearby Weather Stations

Elev 485 ft 38.47 °N, 90.38 °W | Updated 4 minutes ago

Overcast
Overcast
39.7 °F
Feels Like 40 °F
N
0.0
Wind Variable Wind from ESE
Gusts 0.0 mph

Today
High -- | Low -- °F
--% Chance of Precip.
Yesterday
High -- | Low -- °F
Precip. -- in
7:15 AM 4:44 PM
Waning Crescent, 1% visible
Pressure 30.22 in
Visibility 10.0 miles
Clouds Overcast 2400 ft
Windchill 40 °F
Dew Point 35 °F
Humidity 84%
Rainfall 0.00 in
Snow Depth Not available.
UV 0 out of 12
Pollen 2.10 out of 12
Air Quality Not available.
Flu Activity Not available.
METAR KSTL 210951Z 15005KT 10SM OVC024 06/01 A3020 RMK AO2 SLP233 T00560006

More Conditions Fewer Conditions

Pressure 30.22 in
Visibility 10.0 miles
Clouds Overcast 2400 ft
Windchill 40 °F
Dew Point 35 °F
Humidity 84%
Rainfall 0.00 in
Snow Depth Not available.
UV 0 out of 12
Pollen 2.10 out of 12
Air Quality Not available.
Flu Activity Not available.
METAR KSTL 210951Z 15005KT 10SM OVC024 06/01 A3020 RMK AO2 SLP233 T00560006

More Conditions Fewer Conditions

10-Day Weather Forecast

Almanac

Astronomy

Dec. 21, 2014 Rise Set
Actual Time
Civil Twilight
Nautical Twilight
Astronomical Twilight
Moon
Length of Visible Light
Length of Day
Tomorrow will be .
, % of the Moon is Illuminated

Today's Extremes

State Highs State Lows

Community

WunderPhotos

Upload Photos

1,779,364 photos uploaded!

WunderBlogs® & News

Nearby

Air Quality

  Air Quality AQ Index Pollutant
Not available.

Snow Depth

Station Depth Elevation

Earthquake Activity

City Distance Mag. Time & Date
Minimum magnitude displayed is 2.5.

Coastal Water Temperatures

Place Temperature

Nearby Weather Stations